createdAt,value
2023-02-01T00:03:24.889Z,81.47
2023-02-01T00:08:28.469Z,80.73
2023-02-01T00:13:33.946Z,81.03
2023-02-01T00:18:37.523Z,81.51
2023-02-01T00:23:41.208Z,81.52
2023-02-01T00:28:45.280Z,81.34
2023-02-01T00:33:49.530Z,82.18
2023-02-01T00:38:52.799Z,82.33
2023-02-01T00:43:56.063Z,82.43
2023-02-01T00:48:59.491Z,81.47
2023-02-01T00:54:02.762Z,81.34
2023-02-01T00:59:06.290Z,81.71
2023-02-01T01:04:09.724Z,81.62
2023-02-01T01:09:13.178Z,81.59
2023-02-01T01:14:16.501Z,81.20
2023-02-01T01:19:19.741Z,81.41
2023-02-01T01:24:22.884Z,81.55
2023-02-01T01:29:26.075Z,81.86
2023-02-01T01:34:29.076Z,81.33
2023-02-01T01:39:32.159Z,80.71
2023-02-01T01:45:06.098Z,80.68
2023-02-01T01:50:17.470Z,80.97
2023-02-01T01:55:23.665Z,81.23
2023-02-01T02:00:27.694Z,81.03
2023-02-01T02:05:33.309Z,80.88
2023-02-01T02:10:37.742Z,80.52
2023-02-01T02:15:49.944Z,81.02
2023-02-01T02:20:53.097Z,80.38
2023-02-01T02:26:24.243Z,81.06
2023-02-01T02:31:55.613Z,80.31
2023-02-01T02:37:31.947Z,80.32
2023-02-01T02:43:01.057Z,80.66
2023-02-01T02:48:30.121Z,81.36
2023-02-01T02:54:05.551Z,81.68
2023-02-01T02:59:11.238Z,80.82
2023-02-01T03:04:16.183Z,80.36
2023-02-01T03:09:37.846Z,80.97
2023-02-01T03:14:44.884Z,80.76
2023-02-01T03:19:52.301Z,80.33
2023-02-01T03:25:00.735Z,80.37
2023-02-01T03:30:16.789Z,80.84
2023-02-01T03:35:28.887Z,81.13
2023-02-01T03:40:36.587Z,81.77
2023-02-01T03:45:44.933Z,82.40
2023-02-01T03:50:55.626Z,81.41
2023-02-01T03:55:59.852Z,81.84
2023-02-01T04:01:03.284Z,81.79
2023-02-01T04:06:10.567Z,82.27
2023-02-01T04:11:13.788Z,82.17
2023-02-01T04:16:17.780Z,81.51
2023-02-01T04:21:20.941Z,81.08
2023-02-01T04:26:24.553Z,81.18
2023-02-01T04:31:27.842Z,81.06
2023-02-01T04:36:31.111Z,81.54
2023-02-01T04:41:34.184Z,80.99
2023-02-01T04:46:37.351Z,80.38
2023-02-01T04:51:40.370Z,80.41
2023-02-01T04:56:44.198Z,80.67
2023-02-01T05:01:49.061Z,80.84
2023-02-01T05:06:52.619Z,80.32
2023-02-01T05:11:55.771Z,79.90
2023-02-01T05:16:58.793Z,79.58
2023-02-01T05:22:02.009Z,79.85
2023-02-01T05:27:05.418Z,81.70
2023-02-01T05:32:21.516Z,81.54
2023-02-01T05:37:26.302Z,82.43
2023-02-01T05:42:29.287Z,82.62
2023-02-01T05:47:33.154Z,83.08
2023-02-01T05:52:36.384Z,82.45
2023-02-01T05:57:39.511Z,82.61
2023-02-01T06:02:42.761Z,82.03
2023-02-01T06:07:46.160Z,80.96
2023-02-01T06:12:49.605Z,80.53
2023-02-01T06:17:52.930Z,81.44
2023-02-01T06:22:57.610Z,81.90
2023-02-01T06:28:02.484Z,82.41
2023-02-01T06:33:05.847Z,83.06
2023-02-01T06:38:09.237Z,83.37
2023-02-01T06:43:12.493Z,84.10
2023-02-01T06:48:16.159Z,84.39
2023-02-01T06:53:19.358Z,84.96
2023-02-01T06:58:22.580Z,84.79
2023-02-01T07:03:25.906Z,83.50
2023-02-01T07:08:30.348Z,83.26
2023-02-01T07:13:33.845Z,82.44
2023-02-01T07:18:37.103Z,82.28
2023-02-01T07:23:40.465Z,83.28
2023-02-01T07:28:43.455Z,82.28
2023-02-01T07:33:46.880Z,81.73
2023-02-01T07:38:50.206Z,81.84
2023-02-01T07:43:53.846Z,81.48
2023-02-01T07:48:56.962Z,80.79
2023-02-01T07:54:00.061Z,80.75
2023-02-01T07:59:04.165Z,81.51
2023-02-01T08:04:07.300Z,81.49
2023-02-01T08:09:12.196Z,81.03
2023-02-01T08:14:15.367Z,81.28
2023-02-01T08:19:18.531Z,81.03
2023-02-01T08:24:23.095Z,83.15
2023-02-01T08:29:27.573Z,84.61
2023-02-01T08:34:30.737Z,84.36
2023-02-01T08:39:33.700Z,83.95
2023-02-01T08:44:37.084Z,83.94
2023-02-01T08:49:40.995Z,83.36
2023-02-01T08:54:44.601Z,83.95
2023-02-01T08:59:47.604Z,83.56
2023-02-01T09:04:50.581Z,84.63
2023-02-01T09:09:53.787Z,84.94
2023-02-01T09:14:57.294Z,86.64
2023-02-01T09:20:00.463Z,87.86
2023-02-01T09:25:03.979Z,88.26
2023-02-01T09:30:08.961Z,87.85
2023-02-01T09:35:12.147Z,87.76
2023-02-01T09:40:18.088Z,88.28
2023-02-01T09:45:51.158Z,87.58
2023-02-01T09:50:59.812Z,87.84
2023-02-01T09:56:11.933Z,87.61
2023-02-01T10:01:27.165Z,86.64
2023-02-01T10:06:58.845Z,86.97
2023-02-01T10:12:32.269Z,86.77
2023-02-01T10:18:06.352Z,86.96
2023-02-01T10:23:32.933Z,87.65
2023-02-01T10:28:37.505Z,88.13
2023-02-01T10:33:45.727Z,88.89
2023-02-01T10:38:49.458Z,88.64
2023-02-01T10:43:58.429Z,88.66
2023-02-01T10:49:04.890Z,88.40
2023-02-01T10:54:34.836Z,88.38
2023-02-01T10:59:38.145Z,88.57
2023-02-01T11:04:41.367Z,89.17
2023-02-01T11:09:51.600Z,88.39
2023-02-01T11:15:23.792Z,88.00
2023-02-01T11:20:32.988Z,87.57
2023-02-01T11:25:37.708Z,87.99
2023-02-01T11:30:45.186Z,88.32
2023-02-01T11:35:49.514Z,88.98
2023-02-01T11:40:52.694Z,89.57
2023-02-01T11:46:15.838Z,89.19
2023-02-01T11:51:33.915Z,89.18
2023-02-01T11:57:01.832Z,88.79
2023-02-01T12:02:38.065Z,90.29
2023-02-01T12:07:47.335Z,90.55
2023-02-01T12:12:56.175Z,90.58
2023-02-01T12:18:44.306Z,91.06
2023-02-01T12:24:08.156Z,91.14
2023-02-01T12:29:39.026Z,90.73
2023-02-01T12:34:51.043Z,89.94
2023-02-01T12:40:18.666Z,90.59
2023-02-01T12:45:58.096Z,90.78
2023-02-01T12:51:14.145Z,89.77
2023-02-01T12:56:28.190Z,90.17
2023-02-01T13:01:56.512Z,89.22
2023-02-01T13:07:25.808Z,89.94
2023-02-01T13:12:46.171Z,89.71
2023-02-01T13:17:52.659Z,89.73
2023-02-01T13:23:04.545Z,89.14
2023-02-01T13:28:16.226Z,89.38
2023-02-01T13:33:53.560Z,89.77
2023-02-01T13:39:20.589Z,88.79
2023-02-01T13:44:49.944Z,87.58
2023-02-01T13:49:56.334Z,83.77
2023-02-01T13:55:21.431Z,83.26
2023-02-01T14:00:30.632Z,82.66
2023-02-01T14:05:33.791Z,80.90
2023-02-01T14:10:46.392Z,80.72
2023-02-01T14:16:04.941Z,79.56
2023-02-01T14:21:29.358Z,78.68
2023-02-01T14:26:35.734Z,78.27
2023-02-01T14:32:01.202Z,79.99
2023-02-01T14:37:09.951Z,80.70
2023-02-01T14:42:22.697Z,81.33
2023-02-01T14:47:25.869Z,80.60
2023-02-01T14:52:35.276Z,80.60
2023-02-01T14:57:41.976Z,81.06
2023-02-01T15:02:48.834Z,80.83
2023-02-01T15:07:52.948Z,80.87
2023-02-01T15:12:56.126Z,80.79
2023-02-01T15:18:00.611Z,81.16
2023-02-01T15:23:06.444Z,81.35
2023-02-01T15:28:17.488Z,80.96
2023-02-01T15:33:21.547Z,80.97
2023-02-01T15:38:24.812Z,80.88
2023-02-01T15:43:29.498Z,80.51
2023-02-01T15:48:39.149Z,79.82
2023-02-01T15:53:59.683Z,80.94
2023-02-01T15:59:08.135Z,82.96
2023-02-01T16:04:17.551Z,83.49
2023-02-01T16:09:24.073Z,84.39
2023-02-01T16:14:28.156Z,84.10
2023-02-01T16:19:31.318Z,84.05
2023-02-01T16:24:34.344Z,84.33
2023-02-01T16:29:37.431Z,84.67
2023-02-01T16:34:40.625Z,83.82
2023-02-01T16:39:43.671Z,82.36
2023-02-01T16:44:46.816Z,81.08
2023-02-01T16:49:50.113Z,81.09
2023-02-01T16:54:56.215Z,78.69
2023-02-01T17:00:22.241Z,77.38
2023-02-01T17:05:36.028Z,74.97
2023-02-01T17:10:39.310Z,73.43
2023-02-01T17:16:05.279Z,72.70
2023-02-01T17:21:10.730Z,74.08
2023-02-01T17:26:14.108Z,73.47
2023-02-01T17:31:18.602Z,70.32
2023-02-01T17:36:22.055Z,70.68
2023-02-01T17:41:27.448Z,71.02
2023-02-01T17:46:33.359Z,69.85
2023-02-01T17:51:37.023Z,68.98
2023-02-01T17:56:43.342Z,68.19
2023-02-01T18:01:50.813Z,66.17
2023-02-01T18:06:53.764Z,63.62
2023-02-01T18:11:56.804Z,63.05
2023-02-01T18:16:59.974Z,61.86
2023-02-01T18:22:03.161Z,60.76
2023-02-01T18:27:06.073Z,61.89
2023-02-01T18:32:10.926Z,62.23
2023-02-01T18:37:16.903Z,61.73
2023-02-01T18:42:25.066Z,61.39
2023-02-01T18:47:27.981Z,61.84
2023-02-01T18:52:31.129Z,62.41
2023-02-01T18:57:34.291Z,64.92
2023-02-01T19:02:38.034Z,66.54
2023-02-01T19:07:42.871Z,68.00
2023-02-01T19:12:46.448Z,68.00
2023-02-01T19:17:52.526Z,68.59
2023-02-01T19:22:55.679Z,67.82
2023-02-01T19:27:59.155Z,67.36
2023-02-01T19:33:03.175Z,67.64
2023-02-01T19:38:06.602Z,67.11
2023-02-01T19:43:09.727Z,66.46
2023-02-01T19:48:12.960Z,65.30
2023-02-01T19:53:16.377Z,64.63
2023-02-01T19:58:19.544Z,64.71
2023-02-01T20:03:23.521Z,65.38
2023-02-01T20:08:27.746Z,65.35
2023-02-01T20:13:30.843Z,66.59
2023-02-01T20:18:34.000Z,67.00
2023-02-01T20:23:37.169Z,67.73
2023-02-01T20:28:41.619Z,68.64
2023-02-01T20:33:44.751Z,71.09
2023-02-01T20:38:47.994Z,72.04
2023-02-01T20:43:51.184Z,72.46
2023-02-01T20:48:55.458Z,72.17
2023-02-01T20:53:58.521Z,72.17
2023-02-01T20:59:01.684Z,70.52
2023-02-01T21:04:04.817Z,69.30
2023-02-01T21:09:08.237Z,68.36
2023-02-01T21:14:11.862Z,68.83
2023-02-01T21:19:15.225Z,68.87
2023-02-01T21:24:18.304Z,68.52
2023-02-01T21:29:22.538Z,67.39
2023-02-01T21:34:27.125Z,67.26
2023-02-01T21:39:30.283Z,68.19
2023-02-01T21:44:33.370Z,68.88
2023-02-01T21:49:37.749Z,69.16
2023-02-01T21:54:43.292Z,69.13
2023-02-01T21:59:46.377Z,68.86
2023-02-01T22:04:49.410Z,68.89
2023-02-01T22:09:52.538Z,68.47
2023-02-01T22:14:55.838Z,68.11
2023-02-01T22:19:58.812Z,67.33
2023-02-01T22:25:01.716Z,67.21
2023-02-01T22:30:06.234Z,66.00
2023-02-01T22:35:09.866Z,66.13
2023-02-01T22:40:14.997Z,65.04
2023-02-01T22:45:18.101Z,63.94
2023-02-01T22:50:21.392Z,63.70
2023-02-01T22:55:24.852Z,63.83
2023-02-01T23:00:28.877Z,63.56
2023-02-01T23:05:31.982Z,63.68
2023-02-01T23:10:35.422Z,63.98
2023-02-01T23:15:41.332Z,63.53
2023-02-01T23:20:45.047Z,64.51
2023-02-01T23:25:51.923Z,65.94
2023-02-01T23:30:55.151Z,65.44
2023-02-01T23:36:01.057Z,65.84
2023-02-01T23:41:07.853Z,65.52
2023-02-01T23:46:11.639Z,65.31
2023-02-01T23:51:15.681Z,65.48
2023-02-01T23:56:33.669Z,64.25
